Anandale, Louisiana
Current Conditions -  °F | °C
As of 1:53 PM on Wednesday 28 Jan 2015 (Local Time) from KAEX Reporting Station
Clear Clear  
Wind Chill: 70°   Ceiling: Unl
Heat Index: 70°   Visibility: 10mi
Dew Point: 44°   Wind: 12mph
Humidity: 39%   Direction: 130°SE
Pressure: 30.17"   Gusts: NA
Location:  31.2655°N, 92.4705°W
Report Text: KAEX 281953Z 13010KT 10SM CLR 21/07 A3017 RMK AO2 SLP221 T02110067
Loading
Personal Weather Stations






























Interactive Weather Map New forecast layout! Learn more

10-Day Weather Forecast

Advertisements
Track Severe Weather on mobile